createdAt,value
2017-12-04T00:00:19.296Z,14.30
2017-12-04T00:02:48.142Z,13.30
2017-12-04T00:05:17.254Z,12.30
2017-12-04T00:07:45.584Z,12.60
2017-12-04T00:10:13.925Z,13.70
2017-12-04T00:12:42.274Z,13.37
2017-12-04T00:15:10.622Z,11.37
2017-12-04T00:17:38.935Z,12.30
2017-12-04T00:20:08.065Z,13.20
2017-12-04T00:22:36.697Z,13.03
2017-12-04T00:25:05.029Z,12.67
2017-12-04T00:27:40.824Z,14.63
2017-12-04T00:30:09.137Z,13.57
2017-12-04T00:32:38.258Z,14.70
2017-12-04T00:35:06.607Z,13.50
2017-12-04T00:37:34.966Z,13.90
2017-12-04T00:40:03.276Z,14.10
2017-12-04T00:42:31.634Z,13.33
2017-12-04T00:45:00.722Z,14.80
2017-12-04T00:47:29.067Z,14.53
2017-12-04T00:49:57.386Z,13.17
2017-12-04T00:52:25.724Z,14.60
2017-12-04T00:54:54.071Z,13.50
2017-12-04T00:57:22.406Z,14.43
2017-12-04T00:59:50.725Z,16.50
2017-12-04T01:02:19.073Z,13.20
2017-12-04T01:04:47.403Z,13.57
2017-12-04T01:07:15.732Z,13.87
2017-12-04T01:09:44.823Z,14.17
2017-12-04T01:12:13.157Z,14.60
2017-12-04T01:14:41.505Z,13.50
2017-12-04T01:17:09.879Z,12.67
2017-12-04T01:19:38.944Z,13.40
2017-12-04T01:22:08.080Z,11.07
2017-12-04T01:24:37.151Z,11.97
2017-12-04T01:27:05.470Z,13.37
2017-12-04T01:29:33.834Z,14.07
2017-12-04T01:32:02.155Z,13.47
2017-12-04T01:34:30.500Z,14.93
2017-12-04T01:36:58.814Z,14.07
2017-12-04T01:39:27.180Z,14.00
2017-12-04T01:41:55.498Z,15.13
2017-12-04T01:44:23.852Z,13.00
2017-12-04T01:46:52.174Z,12.77
2017-12-04T01:49:21.283Z,14.07
2017-12-04T01:51:49.636Z,13.50
2017-12-04T01:54:17.965Z,13.57
2017-12-04T01:56:46.320Z,11.30
2017-12-04T01:59:14.665Z,14.60
2017-12-04T02:01:43.009Z,14.27
2017-12-04T02:04:11.340Z,16.60
2017-12-04T02:06:40.457Z,15.07
2017-12-04T02:09:08.809Z,14.90
2017-12-04T02:11:37.929Z,13.20
2017-12-04T02:14:07.004Z,14.30
2017-12-04T02:16:35.344Z,15.27
2017-12-04T02:19:03.664Z,13.57
2017-12-04T02:21:32.773Z,13.00
2017-12-04T02:24:01.861Z,17.30
2017-12-04T02:26:31.995Z,15.00
2017-12-04T02:29:01.080Z,16.03
2017-12-04T02:31:29.461Z,12.80
2017-12-04T02:33:58.551Z,18.60
2017-12-04T02:36:27.689Z,14.00
2017-12-04T02:38:56.034Z,13.30
2017-12-04T02:41:25.125Z,15.43
2017-12-04T02:43:54.240Z,13.90
2017-12-04T02:46:22.575Z,16.10
2017-12-04T02:48:50.934Z,13.93
2017-12-04T02:51:19.261Z,15.23
2017-12-04T02:53:47.618Z,14.90
2017-12-04T02:56:15.956Z,15.37
2017-12-04T02:58:52.377Z,16.10
2017-12-04T03:01:22.306Z,15.30
2017-12-04T03:03:51.469Z,15.97
2017-12-04T03:06:19.793Z,14.40
2017-12-04T03:08:48.177Z,14.57
2017-12-04T03:11:16.510Z,15.80
2017-12-04T03:13:44.854Z,14.60
2017-12-04T03:16:13.168Z,13.47
2017-12-04T03:18:41.543Z,13.93
2017-12-04T03:21:09.946Z,14.30
2017-12-04T03:23:39.098Z,14.60
2017-12-04T03:26:07.433Z,14.20
2017-12-04T03:28:35.789Z,14.50
2017-12-04T03:31:04.939Z,15.70
2017-12-04T03:33:33.296Z,13.80
2017-12-04T03:36:02.464Z,15.07
2017-12-04T03:38:30.801Z,11.60
2017-12-04T03:40:59.143Z,15.77
2017-12-04T03:43:28.261Z,12.90
2017-12-04T03:45:56.611Z,14.07
2017-12-04T03:48:25.722Z,16.13
2017-12-04T03:50:54.800Z,14.90
2017-12-04T03:53:23.160Z,13.93
2017-12-04T03:55:51.518Z,14.70
2017-12-04T03:58:19.868Z,15.00
2017-12-04T04:00:48.198Z,15.80
2017-12-04T04:03:16.585Z,17.53
2017-12-04T04:05:44.902Z,16.30
2017-12-04T04:08:13.254Z,18.30
2017-12-04T04:10:41.572Z,16.40
2017-12-04T04:13:09.929Z,15.60
2017-12-04T04:15:39.021Z,15.80
2017-12-04T04:18:08.134Z,17.40
2017-12-04T04:20:36.447Z,17.17
2017-12-04T04:23:04.803Z,16.30
2017-12-04T04:25:33.129Z,17.50
2017-12-04T04:28:01.488Z,18.03
2017-12-04T04:30:29.830Z,19.40
2017-12-04T04:32:58.181Z,20.57
2017-12-04T04:35:26.501Z,19.80
2017-12-04T04:37:54.828Z,17.00
2017-12-04T04:43:24.581Z,17.60
2017-12-04T04:45:53.678Z,18.47
2017-12-04T04:48:22.789Z,20.50
2017-12-04T04:50:51.101Z,17.50
2017-12-04T04:53:19.467Z,18.90
2017-12-04T04:55:47.789Z,15.83
2017-12-04T04:58:17.049Z,15.43
2017-12-04T05:00:45.386Z,18.50
2017-12-04T05:03:13.736Z,16.97
2017-12-04T05:05:42.062Z,15.27
2017-12-04T05:08:15.748Z,15.80
2017-12-04T05:10:44.837Z,18.10
2017-12-04T05:13:24.347Z,19.70
2017-12-04T05:15:52.666Z,20.93
2017-12-04T05:18:21.029Z,24.17
2017-12-04T05:20:55.695Z,16.30
2017-12-04T05:23:24.046Z,14.57
2017-12-04T05:25:53.141Z,15.37
2017-12-04T05:28:22.246Z,14.97
2017-12-04T05:30:51.324Z,14.93
2017-12-04T05:33:19.668Z,16.87
2017-12-04T05:35:47.986Z,16.33
2017-12-04T05:38:16.330Z,14.67
2017-12-04T05:40:44.658Z,13.63
2017-12-04T05:43:12.996Z,14.40
2017-12-04T05:45:41.317Z,13.63
2017-12-04T05:48:10.444Z,14.90
2017-12-04T05:50:38.756Z,15.73
2017-12-04T05:53:07.094Z,14.60
2017-12-04T05:55:35.409Z,14.57
2017-12-04T05:58:03.737Z,12.50
2017-12-04T06:00:32.076Z,13.50
2017-12-04T06:03:00.428Z,12.97
2017-12-04T06:05:28.757Z,13.33
2017-12-04T06:07:57.884Z,13.67
2017-12-04T06:10:26.205Z,13.23
2017-12-04T06:12:54.563Z,13.13
2017-12-04T06:15:22.886Z,11.90
2017-12-04T06:17:51.969Z,13.37
2017-12-04T06:20:20.318Z,13.43
2017-12-04T06:22:48.636Z,12.37
2017-12-04T06:25:17.771Z,12.97
2017-12-04T06:27:46.097Z,12.40
2017-12-04T06:30:14.451Z,13.57
2017-12-04T06:32:42.777Z,12.57
2017-12-04T06:35:11.900Z,14.70
2017-12-04T06:37:40.212Z,13.50
2017-12-04T06:40:08.576Z,13.87
2017-12-04T06:42:36.930Z,15.53
2017-12-04T06:45:05.269Z,13.83
2017-12-04T06:47:33.592Z,14.00
2017-12-04T06:50:01.939Z,15.77
2017-12-04T06:52:30.276Z,13.53
2017-12-04T06:54:58.625Z,15.67
2017-12-04T06:57:26.928Z,16.03
2017-12-04T06:59:56.102Z,14.43
2017-12-04T07:02:24.457Z,15.40
2017-12-04T07:04:53.548Z,15.80
2017-12-04T07:07:22.697Z,14.03
2017-12-04T07:09:51.037Z,14.27
2017-12-04T07:12:19.397Z,14.70
2017-12-04T07:14:47.717Z,14.90
2017-12-04T07:17:16.081Z,15.27
2017-12-04T07:19:44.420Z,13.60
2017-12-04T07:22:12.804Z,15.13
2017-12-04T07:24:41.126Z,14.00
2017-12-04T07:27:09.493Z,15.20
2017-12-04T07:29:37.915Z,14.17
2017-12-04T07:32:06.281Z,11.83
2017-12-04T07:34:34.674Z,12.57
2017-12-04T07:37:03.055Z,12.83
2017-12-04T07:39:32.268Z,12.17
2017-12-04T07:42:00.619Z,12.40
2017-12-04T07:44:28.983Z,14.67
2017-12-04T07:46:57.324Z,12.07
2017-12-04T07:49:26.454Z,12.50
2017-12-04T07:51:54.811Z,12.73
2017-12-04T07:54:23.931Z,13.20
2017-12-04T07:56:52.267Z,11.83
2017-12-04T07:59:20.642Z,11.60
2017-12-04T08:01:48.975Z,13.07
2017-12-04T08:04:17.331Z,12.77
2017-12-04T08:06:46.444Z,13.97
2017-12-04T08:09:14.837Z,13.17
2017-12-04T08:11:43.233Z,13.60
2017-12-04T08:14:11.586Z,15.23
2017-12-04T08:16:39.934Z,13.70
2017-12-04T08:19:08.327Z,12.47
2017-12-04T08:21:37.440Z,12.50
2017-12-04T08:24:05.829Z,11.37
2017-12-04T08:26:34.202Z,12.17
2017-12-04T08:29:02.594Z,14.10
2017-12-04T08:31:30.971Z,15.20
2017-12-04T08:33:59.368Z,11.70
2017-12-04T08:36:27.721Z,15.07
2017-12-04T08:38:56.111Z,13.50
2017-12-04T08:41:24.473Z,13.37
2017-12-04T08:43:52.890Z,11.23
2017-12-04T08:46:21.256Z,15.40
2017-12-04T08:48:50.376Z,14.43
2017-12-04T08:51:20.157Z,14.47
2017-12-04T08:53:48.603Z,14.07
2017-12-04T08:56:18.406Z,15.40
2017-12-04T08:58:46.794Z,15.53
2017-12-04T09:01:15.982Z,15.17
2017-12-04T09:03:44.439Z,13.77
2017-12-04T09:06:13.003Z,13.37
2017-12-04T09:08:42.812Z,10.90
2017-12-04T09:11:11.372Z,12.30
2017-12-04T09:13:39.840Z,9.27
2017-12-04T09:16:15.728Z,12.07
2017-12-04T09:18:44.244Z,13.70
2017-12-04T09:21:13.577Z,14.00
2017-12-04T09:23:48.409Z,14.97
2017-12-04T09:26:19.033Z,13.30
2017-12-04T09:28:47.517Z,12.93
2017-12-04T09:31:15.944Z,13.10
2017-12-04T09:33:44.322Z,13.20
2017-12-04T09:36:12.715Z,11.80
2017-12-04T09:38:41.135Z,7.90
2017-12-04T09:41:10.276Z,11.60
2017-12-04T09:43:38.611Z,9.20
2017-12-04T09:46:06.973Z,10.50
2017-12-04T09:48:35.385Z,9.20
2017-12-04T09:51:04.534Z,10.43
2017-12-04T09:53:33.779Z,9.40
2017-12-04T09:56:02.127Z,8.70
2017-12-04T09:58:30.473Z,9.23
2017-12-04T10:00:58.861Z,10.27
2017-12-04T10:03:27.216Z,8.73
2017-12-04T10:05:56.338Z,10.60
2017-12-04T10:08:24.679Z,7.93
2017-12-04T10:10:53.814Z,10.03
2017-12-04T10:13:22.176Z,8.50
2017-12-04T10:15:50.544Z,10.83
2017-12-04T10:18:18.876Z,9.80
2017-12-04T10:20:47.241Z,9.77
2017-12-04T10:23:15.583Z,7.80
2017-12-04T10:25:44.011Z,9.73
2017-12-04T10:28:12.354Z,9.93
2017-12-04T10:30:40.697Z,9.80
2017-12-04T10:33:09.024Z,12.57
2017-12-04T10:35:37.404Z,9.50
2017-12-04T10:38:05.721Z,10.90
2017-12-04T10:40:34.096Z,13.07
2017-12-04T10:43:04.055Z,10.80
2017-12-04T10:45:32.400Z,9.40
2017-12-04T10:48:00.776Z,11.37
2017-12-04T10:50:29.101Z,9.17
2017-12-04T10:52:58.257Z,7.37
2017-12-04T10:55:29.626Z,9.53
2017-12-04T10:57:57.998Z,8.60
2017-12-04T11:00:26.307Z,6.63
2017-12-04T11:02:54.653Z,7.10
2017-12-04T11:05:23.750Z,7.73
2017-12-04T11:07:52.090Z,7.30
2017-12-04T11:10:20.401Z,8.17
2017-12-04T11:12:48.737Z,8.37
2017-12-04T11:15:17.063Z,6.60
2017-12-04T11:17:45.393Z,6.70
2017-12-04T11:20:13.738Z,7.03
2017-12-04T11:22:42.838Z,7.93
2017-12-04T11:25:11.932Z,7.60
2017-12-04T11:27:41.040Z,7.10
2017-12-04T11:30:12.874Z,10.60
2017-12-04T11:32:42.007Z,8.10
2017-12-04T11:35:11.173Z,8.40
2017-12-04T11:37:40.265Z,6.53
2017-12-04T11:40:09.390Z,6.97
2017-12-04T11:42:37.718Z,7.13
2017-12-04T11:45:06.057Z,6.60
2017-12-04T11:47:34.411Z,7.53
2017-12-04T11:50:03.532Z,7.00
2017-12-04T11:52:31.866Z,7.50
2017-12-04T11:55:00.228Z,7.10
2017-12-04T11:57:28.559Z,7.67
2017-12-04T11:59:56.907Z,6.87
2017-12-04T12:02:25.319Z,6.67
2017-12-04T12:04:53.652Z,7.87
2017-12-04T12:07:21.969Z,8.07
2017-12-04T12:09:50.336Z,7.77
2017-12-04T12:12:19.431Z,6.80
2017-12-04T12:14:48.552Z,6.83
2017-12-04T12:17:16.898Z,8.10
2017-12-04T12:19:45.248Z,7.60
2017-12-04T12:22:13.577Z,7.23
2017-12-04T12:24:42.654Z,7.50
2017-12-04T12:27:11.002Z,8.47
2017-12-04T12:29:39.326Z,7.20
2017-12-04T12:32:08.442Z,7.43
2017-12-04T12:34:36.759Z,7.77
2017-12-04T12:37:05.107Z,8.40
2017-12-04T12:39:33.434Z,7.83
2017-12-04T12:42:01.810Z,6.97
2017-12-04T12:44:30.169Z,8.13
2017-12-04T12:46:58.540Z,15.67
2017-12-04T12:49:26.873Z,21.50
2017-12-04T12:51:56.001Z,16.80
2017-12-04T12:54:24.334Z,9.90
2017-12-04T12:56:52.691Z,9.53
2017-12-04T12:59:21.017Z,9.07
2017-12-04T13:01:50.115Z,13.37
2017-12-04T13:04:18.438Z,11.47
2017-12-04T13:06:46.798Z,9.47
2017-12-04T13:09:15.113Z,8.63
2017-12-04T13:11:43.457Z,9.37
2017-12-04T13:14:11.781Z,9.00
2017-12-04T13:16:40.947Z,10.03
2017-12-04T13:19:09.298Z,8.90
2017-12-04T13:21:37.647Z,9.60
2017-12-04T13:24:06.744Z,10.13
2017-12-04T13:26:35.851Z,8.67
2017-12-04T13:29:04.935Z,8.93
2017-12-04T13:31:34.058Z,10.13
2017-12-04T13:37:26.754Z,8.80
2017-12-04T13:39:55.089Z,7.80
2017-12-04T13:42:24.207Z,7.73
2017-12-04T13:44:52.549Z,8.70
2017-12-04T13:47:20.886Z,8.73
2017-12-04T13:49:49.198Z,9.30
2017-12-04T13:52:17.537Z,8.10
2017-12-04T13:54:45.909Z,9.30
2017-12-04T13:57:14.262Z,8.73
2017-12-04T13:59:43.358Z,8.63
2017-12-04T14:02:11.722Z,10.60
2017-12-04T14:04:40.068Z,10.40
2017-12-04T14:07:08.451Z,10.00
2017-12-04T14:09:36.802Z,8.93
2017-12-04T14:12:05.175Z,10.90
2017-12-04T14:14:33.532Z,9.67
2017-12-04T14:17:02.629Z,9.70
2017-12-04T14:19:31.751Z,9.73
2017-12-04T14:22:00.086Z,10.00
2017-12-04T14:24:28.507Z,8.90
2017-12-04T14:26:56.869Z,9.93
2017-12-04T14:29:26.002Z,12.53
2017-12-04T14:31:55.219Z,11.37
2017-12-04T14:34:23.603Z,11.60
2017-12-04T14:36:51.936Z,10.33
2017-12-04T14:39:20.297Z,11.07
2017-12-04T14:41:49.412Z,10.10
2017-12-04T14:44:17.782Z,10.43
2017-12-04T14:46:46.134Z,11.60
2017-12-04T14:49:14.521Z,9.20
2017-12-04T14:51:42.888Z,11.70
2017-12-04T14:54:11.288Z,10.20
2017-12-04T14:56:40.458Z,9.90
2017-12-04T14:59:08.876Z,9.17
2017-12-04T15:01:37.240Z,10.47
2017-12-04T15:04:05.681Z,8.70
2017-12-04T15:06:34.006Z,9.63
2017-12-04T15:09:02.394Z,9.40
2017-12-04T15:11:30.750Z,10.10
2017-12-04T15:17:18.054Z,10.13
2017-12-04T15:19:46.425Z,9.73
2017-12-04T15:22:14.775Z,9.27
2017-12-04T15:24:43.126Z,8.90
2017-12-04T15:27:11.504Z,10.40
2017-12-04T15:29:39.832Z,9.77
2017-12-04T15:32:08.189Z,11.13
2017-12-04T15:34:36.545Z,11.60
2017-12-04T15:37:04.936Z,12.77
2017-12-04T15:39:34.038Z,10.47
2017-12-04T15:42:02.429Z,9.80
2017-12-04T15:44:31.510Z,9.13
2017-12-04T15:46:59.889Z,7.80
2017-12-04T15:49:28.225Z,10.10
2017-12-04T15:51:56.592Z,10.03
2017-12-04T15:54:24.934Z,10.60
2017-12-04T15:56:53.294Z,11.10
2017-12-04T15:59:22.409Z,12.00
2017-12-04T16:01:50.781Z,9.50
2017-12-04T16:04:19.903Z,9.90
2017-12-04T16:06:48.269Z,10.60
2017-12-04T16:09:16.612Z,9.73
2017-12-04T16:11:44.951Z,10.90
2017-12-04T16:14:13.282Z,9.23
2017-12-04T16:16:41.639Z,11.43
2017-12-04T16:19:09.974Z,11.60
2017-12-04T16:21:38.339Z,16.77
2017-12-04T16:24:07.452Z,16.23
2017-12-04T16:26:35.827Z,16.77
2017-12-04T16:29:04.948Z,14.00
2017-12-04T16:31:33.276Z,14.40
2017-12-04T16:34:02.411Z,11.13
2017-12-04T16:36:30.759Z,12.20
2017-12-04T16:38:59.886Z,12.20
2017-12-04T16:41:28.253Z,15.80
2017-12-04T16:43:57.462Z,13.20
2017-12-04T16:46:25.813Z,16.27
2017-12-04T16:48:54.943Z,14.63
2017-12-04T16:51:23.266Z,13.80
2017-12-04T16:53:51.611Z,10.20
2017-12-04T16:56:19.945Z,11.87
2017-12-04T16:58:48.335Z,12.77
2017-12-04T17:01:17.473Z,13.40
2017-12-04T17:03:45.844Z,12.87
2017-12-04T17:06:14.187Z,12.37
2017-12-04T17:08:43.308Z,10.17
2017-12-04T17:11:11.634Z,14.53
2017-12-04T17:13:39.990Z,12.53
2017-12-04T17:16:08.317Z,11.20
2017-12-04T17:18:37.452Z,10.37
2017-12-04T17:21:06.625Z,12.23
2017-12-04T17:23:34.984Z,13.07
2017-12-04T17:26:03.332Z,13.77
2017-12-04T17:28:31.699Z,13.50
2017-12-04T17:31:00.042Z,13.40
2017-12-04T17:33:28.403Z,12.70
2017-12-04T17:35:57.510Z,13.30
2017-12-04T17:38:25.916Z,13.53
2017-12-04T17:40:54.276Z,13.90
2017-12-04T17:43:23.375Z,15.20
2017-12-04T17:45:51.741Z,15.37
2017-12-04T17:48:20.845Z,14.40
2017-12-04T17:50:49.970Z,13.87
2017-12-04T17:53:18.313Z,12.33
2017-12-04T17:55:47.437Z,15.77
2017-12-04T17:58:15.772Z,15.40
2017-12-04T18:00:44.126Z,13.90
2017-12-04T18:03:12.467Z,12.83
2017-12-04T18:05:40.835Z,11.77
2017-12-04T18:08:10.040Z,13.00
2017-12-04T18:10:38.418Z,12.60
2017-12-04T18:13:06.750Z,13.30
2017-12-04T18:15:35.211Z,13.90
2017-12-04T18:18:03.546Z,13.03
2017-12-04T18:20:32.662Z,14.07
2017-12-04T18:23:01.005Z,14.23
2017-12-04T18:25:30.154Z,16.80
2017-12-04T18:27:58.507Z,16.30
2017-12-04T18:30:26.913Z,15.03
2017-12-04T18:32:55.404Z,15.33
2017-12-04T18:35:23.773Z,13.83
2017-12-04T18:37:52.147Z,15.20
2017-12-04T18:40:20.495Z,15.43
2017-12-04T18:42:48.892Z,14.00
2017-12-04T18:45:17.245Z,15.20
2017-12-04T18:47:45.598Z,15.27
2017-12-04T18:50:13.946Z,13.63
2017-12-04T18:52:42.316Z,13.40
2017-12-04T18:55:10.658Z,17.70
2017-12-04T18:57:39.810Z,19.47
2017-12-04T19:00:08.169Z,15.80
2017-12-04T19:02:36.537Z,15.13
2017-12-04T19:05:04.911Z,16.30
2017-12-04T19:07:34.055Z,16.60
2017-12-04T19:10:02.409Z,16.43
2017-12-04T19:12:30.761Z,18.33
2017-12-04T19:14:59.932Z,15.33
2017-12-04T19:17:28.380Z,17.33
2017-12-04T19:19:56.755Z,15.83
2017-12-04T19:22:25.098Z,15.33
2017-12-04T19:24:53.464Z,13.60
2017-12-04T19:27:21.836Z,16.77
2017-12-04T19:29:50.201Z,15.30
2017-12-04T19:32:18.607Z,15.27
2017-12-04T19:34:46.961Z,16.80
2017-12-04T19:37:15.294Z,15.97
2017-12-04T19:39:43.738Z,14.67
2017-12-04T19:42:12.063Z,14.30
2017-12-04T19:44:40.425Z,16.20
2017-12-04T19:47:08.828Z,16.63
2017-12-04T19:49:37.215Z,16.00
2017-12-04T19:52:05.563Z,16.20
2017-12-04T19:54:33.948Z,16.17
2017-12-04T19:57:02.296Z,17.33
2017-12-04T19:59:31.417Z,17.40
2017-12-04T20:01:59.773Z,16.13
2017-12-04T20:04:28.971Z,14.73
2017-12-04T20:06:58.094Z,17.77
2017-12-04T20:09:27.249Z,16.97
2017-12-04T20:11:55.605Z,16.20
2017-12-04T20:14:23.968Z,16.93
2017-12-04T20:16:52.323Z,16.30
2017-12-04T20:19:21.465Z,17.00
2017-12-04T20:21:49.826Z,15.63
2017-12-04T20:24:18.230Z,16.80
2017-12-04T20:26:46.620Z,15.97
2017-12-04T20:29:14.967Z,16.87
2017-12-04T20:31:43.350Z,15.90
2017-12-04T20:34:11.679Z,16.40
2017-12-04T20:36:40.031Z,17.80
2017-12-04T20:39:08.433Z,15.63
2017-12-04T20:41:36.806Z,15.83
2017-12-04T20:44:05.137Z,14.27
2017-12-04T20:46:33.577Z,15.53
2017-12-04T20:49:02.697Z,14.87
2017-12-04T20:51:31.052Z,16.83
2017-12-04T20:53:59.397Z,16.10
2017-12-04T20:56:27.737Z,14.17
2017-12-04T20:58:56.118Z,15.63
2017-12-04T21:01:24.466Z,16.10
2017-12-04T21:03:52.829Z,14.10
2017-12-04T21:06:21.182Z,15.73
2017-12-04T21:09:01.449Z,16.00
2017-12-04T21:11:41.666Z,16.03
2017-12-04T21:17:21.618Z,14.80
2017-12-04T21:19:49.991Z,16.90
2017-12-04T21:22:18.393Z,16.63
2017-12-04T21:24:46.752Z,17.83
2017-12-04T21:27:15.187Z,17.80
2017-12-04T21:29:43.561Z,18.23
2017-12-04T21:32:11.908Z,18.33
2017-12-04T21:34:41.053Z,16.73
2017-12-04T21:37:09.390Z,16.77
2017-12-04T21:39:37.786Z,17.80
2017-12-04T21:42:06.212Z,16.70
2017-12-04T21:44:34.582Z,16.70
2017-12-04T21:47:03.090Z,16.60
2017-12-04T21:49:31.478Z,16.53
2017-12-04T21:51:59.847Z,18.87
2017-12-04T21:54:28.206Z,17.27
2017-12-04T21:56:56.544Z,17.03
2017-12-04T21:59:24.909Z,11.60
2017-12-04T22:01:54.009Z,18.07
2017-12-04T22:04:23.123Z,18.07
2017-12-04T22:06:51.478Z,18.47
2017-12-04T22:09:20.621Z,16.80
2017-12-04T22:11:49.014Z,17.40
2017-12-04T22:14:17.469Z,18.20
2017-12-04T22:16:45.802Z,18.93
2017-12-04T22:19:14.141Z,18.70
2017-12-04T22:21:43.421Z,17.60
2017-12-04T22:24:11.763Z,18.40
2017-12-04T22:26:40.127Z,20.77
2017-12-04T22:29:09.298Z,19.53
2017-12-04T22:31:37.705Z,19.47
2017-12-04T22:34:06.828Z,18.00
2017-12-04T22:36:35.992Z,16.20
2017-12-04T22:39:04.350Z,17.20
2017-12-04T22:41:32.723Z,18.23
2017-12-04T22:44:01.080Z,18.30
2017-12-04T22:46:29.456Z,17.10
2017-12-04T22:48:57.802Z,19.10
2017-12-04T22:51:26.176Z,18.90
2017-12-04T22:53:54.535Z,16.80
2017-12-04T22:56:22.944Z,16.63
2017-12-04T22:58:51.283Z,16.13
2017-12-04T23:01:19.657Z,17.13
2017-12-04T23:03:48.044Z,19.27
2017-12-04T23:06:16.397Z,18.17
2017-12-04T23:08:44.746Z,17.53
2017-12-04T23:11:13.118Z,17.33
2017-12-04T23:13:41.479Z,18.70
2017-12-04T23:16:09.886Z,19.57
2017-12-04T23:18:39.013Z,17.67
2017-12-04T23:21:07.383Z,17.80
2017-12-04T23:23:36.511Z,18.50
2017-12-04T23:26:04.905Z,17.87
2017-12-04T23:28:33.334Z,17.40
2017-12-04T23:31:02.742Z,19.27
2017-12-04T23:33:31.854Z,17.70
2017-12-04T23:36:00.215Z,17.40
2017-12-04T23:38:28.602Z,18.23
2017-12-04T23:40:57.696Z,21.27
2017-12-04T23:43:26.807Z,19.20
2017-12-04T23:45:55.147Z,19.53
2017-12-04T23:48:23.506Z,17.53
2017-12-04T23:50:51.833Z,18.63
2017-12-04T23:53:21.213Z,16.83
2017-12-04T23:55:49.546Z,17.93
2017-12-04T23:58:17.901Z,19.07
